Time;durP1;ratioP1;P1;durP2;ratioP2;P2;SDS_P1;SDS_P2;PMS_P1;PMS_P2;Temp;Humidity;BMP_temperature;BMP_pressure;BME280_temperature;BME280_humidity;BME280_pressure;Samples;Min_cycle;Max_cycle;Signal;HPM_P1;HPM_P2
2024/03/17 00:01:42;;;;;;;55.50;29.00;;;;;;;;;;5006831;28;20029;-42
2024/03/17 00:04:16;;;;;;;52.70;28.58;;;;;;;;;;5006386;28;20018;-40
2024/03/17 00:06:47;;;;;;;62.63;29.50;;;;;;;;;;5005605;28;20242;-40
2024/03/17 00:09:20;;;;;;;72.50;29.92;;;;;;;;;;5006189;28;20048;-40
2024/03/17 00:11:49;;;;;;;88.75;30.70;;;;;;;;;;5006275;28;20041;-34
2024/03/17 00:14:19;;;;;;;87.15;30.50;;;;;;;;;;5006098;28;20033;-36
2024/03/17 00:16:46;;;;;;;71.60;28.52;;;;;;;;;;5005994;28;20105;-34
2024/03/17 00:19:16;;;;;;;52.95;27.88;;;;;;;;;;5005731;28;20026;-39
2024/03/17 00:21:52;;;;;;;69.07;29.25;;;;;;;;;;5006307;28;20337;-46
2024/03/17 00:24:19;;;;;;;50.72;27.70;;;;;;;;;;5005802;28;20113;-45
2024/03/17 00:26:46;;;;;;;47.33;26.70;;;;;;;;;;5006090;28;20037;-38
2024/03/17 00:29:14;;;;;;;35.40;25.48;;;;;;;;;;5005666;28;20026;-42
2024/03/17 00:31:41;;;;;;;38.20;25.80;;;;;;;;;;5005966;28;20030;-40
2024/03/17 00:34:10;;;;;;;32.63;26.17;;;;;;;;;;5005698;28;20054;-40
2024/03/17 00:36:37;;;;;;;36.08;25.30;;;;;;;;;;5005900;28;20254;-39
2024/03/17 00:39:04;;;;;;;35.25;25.45;;;;;;;;;;5005384;28;20041;-43
2024/03/17 00:41:33;;;;;;;34.25;25.70;;;;;;;;;;5005713;28;20073;-40
2024/03/17 00:44:00;;;;;;;39.28;27.88;;;;;;;;;;5005488;28;20065;-40
2024/03/17 00:46:27;;;;;;;37.42;27.35;;;;;;;;;;5005684;28;20053;-42
2024/03/17 00:48:54;;;;;;;37.95;25.98;;;;;;;;;;5005285;28;20045;-44
2024/03/17 00:51:21;;;;;;;35.70;25.35;;;;;;;;;;5005219;28;20040;-46
2024/03/17 00:53:47;;;;;;;64.90;28.38;;;;;;;;;;5005511;28;20048;-45
2024/03/17 00:56:14;;;;;;;46.03;25.85;;;;;;;;;;5005490;28;20104;-43
2024/03/17 00:58:41;;;;;;;45.45;25.27;;;;;;;;;;5005171;28;20023;-47
2024/03/17 01:01:07;;;;;;;43.08;25.25;;;;;;;;;;5005450;28;20018;-42
2024/03/17 01:03:34;;;;;;;45.80;24.48;;;;;;;;;;5004959;28;20081;-45
2024/03/17 01:06:02;;;;;;;47.25;25.40;;;;;;;;;;5005417;28;20018;-44
2024/03/17 01:08:29;;;;;;;44.13;25.38;;;;;;;;;;5005031;28;20033;-44
2024/03/17 01:10:56;;;;;;;36.85;25.75;;;;;;;;;;5005099;28;20030;-37
2024/03/17 01:13:22;;;;;;;34.10;23.98;;;;;;;;;;5005185;28;20026;-36
2024/03/17 01:15:53;;;;;;;39.72;24.55;;;;;;;;;;5005193;28;20026;-38
2024/03/17 01:18:19;;;;;;;41.67;25.30;;;;;;;;;;5004759;28;20026;-38
2024/03/17 01:20:49;;;;;;;39.80;24.55;;;;;;;;;;5005132;28;20025;-36
2024/03/17 01:23:15;;;;;;;36.92;24.45;;;;;;;;;;5005010;28;20033;-42
2024/03/17 01:25:42;;;;;;;36.45;24.85;;;;;;;;;;5004757;28;20018;-45
2024/03/17 01:28:08;;;;;;;33.47;24.50;;;;;;;;;;5004092;28;20026;-44
2024/03/17 01:30:40;;;;;;;41.78;25.17;;;;;;;;;;5004657;28;20018;-41
2024/03/17 01:33:07;;;;;;;;;;;;;;;;;;5005732;28;20034;-46
2024/03/17 01:35:34;;;;;;;45.50;25.65;;;;;;;;;;5004777;28;19913;-42
2024/03/17 01:38:01;;;;;;;45.00;26.10;;;;;;;;;;5004375;28;20026;-47
2024/03/17 01:40:27;;;;;;;51.33;26.67;;;;;;;;;;5004417;28;20274;-41
2024/03/17 01:42:54;;;;;;;49.40;26.42;;;;;;;;;;5004576;28;20082;-42
2024/03/17 01:45:31;;;;;;;41.88;25.88;;;;;;;;;;5004440;28;20061;-47
2024/03/17 01:47:58;;;;;;;42.13;25.02;;;;;;;;;;5004000;28;20084;-42
2024/03/17 01:50:36;;;;;;;34.30;25.08;;;;;;;;;;5004413;28;20026;-45
2024/03/17 01:53:07;;;;;;;50.67;25.48;;;;;;;;;;5004256;28;20319;-45
2024/03/17 01:55:36;;;;;;;50.00;25.55;;;;;;;;;;5004490;28;20336;-41
2024/03/17 01:58:13;;;;;;;52.35;26.25;;;;;;;;;;5003954;28;20034;-42
2024/03/17 02:00:44;;;;;;;47.75;26.27;;;;;;;;;;5004653;28;20027;-47
2024/03/17 02:03:15;;;;;;;36.97;25.63;;;;;;;;;;5004245;28;20265;-46
2024/03/17 02:05:51;;;;;;;49.25;26.42;;;;;;;;;;5004249;28;20329;-45
2024/03/17 02:08:30;;;;;;;45.03;26.48;;;;;;;;;;5004178;28;20053;-41
2024/03/17 02:10:56;;;;;;;47.40;25.10;;;;;;;;;;5004229;28;20065;-40
2024/03/17 02:13:23;;;;;;;39.30;25.52;;;;;;;;;;5004143;28;20031;-37
2024/03/17 02:15:50;;;;;;;36.45;24.45;;;;;;;;;;5004386;28;20052;-46
2024/03/17 02:18:16;;;;;;;38.72;23.98;;;;;;;;;;5003858;28;20041;-36
2024/03/17 02:20:55;;;;;;;29.80;23.83;;;;;;;;;;5004252;28;20042;-37
2024/03/17 02:23:22;;;;;;;36.92;24.98;;;;;;;;;;5003912;28;20341;-35
2024/03/17 02:25:48;;;;;;;31.95;24.00;;;;;;;;;;5004288;28;20222;-47
2024/03/17 02:28:15;;;;;;;35.13;24.85;;;;;;;;;;5004083;28;20030;-37
2024/03/17 02:30:42;;;;;;;34.55;23.42;;;;;;;;;;5004048;28;20081;-44
2024/03/17 02:33:08;;;;;;;29.90;23.83;;;;;;;;;;5004017;28;20032;-43
2024/03/17 02:35:35;;;;;;;32.95;23.48;;;;;;;;;;5004281;28;20034;-47
2024/03/17 02:38:02;;;;;;;36.90;23.65;;;;;;;;;;5004768;28;20218;-45
2024/03/17 02:40:29;;;;;;;28.17;23.20;;;;;;;;;;5007653;28;20053;-38
2024/03/17 02:42:55;;;;;;;31.25;22.85;;;;;;;;;;5007738;28;20046;-53
2024/03/17 02:45:22;;;;;;;31.20;22.83;;;;;;;;;;5007665;28;20192;-49
2024/03/17 02:47:50;;;;;;;31.77;22.23;;;;;;;;;;5007503;28;20283;-44
2024/03/17 02:50:16;;;;;;;36.03;23.92;;;;;;;;;;5007568;28;20026;-50
2024/03/17 02:52:43;;;;;;;28.05;22.83;;;;;;;;;;5007455;28;20334;-46
2024/03/17 02:55:10;;;;;;;33.53;22.95;;;;;;;;;;5007398;28;20065;-43
2024/03/17 02:57:37;;;;;;;40.17;24.05;;;;;;;;;;5007538;28;20030;-42
2024/03/17 03:00:08;;;;;;;30.13;22.65;;;;;;;;;;5007381;28;20073;-48
2024/03/17 03:02:35;;;;;;;30.98;21.48;;;;;;;;;;5007324;28;20033;-49
2024/03/17 03:05:02;;;;;;;38.72;23.52;;;;;;;;;;5007505;28;20198;-48
2024/03/17 03:07:28;;;;;;;42.78;23.52;;;;;;;;;;5007139;28;20025;-43
2024/03/17 03:09:55;;;;;;;30.50;23.77;;;;;;;;;;5007426;28;20149;-45
2024/03/17 03:12:21;;;;;;;31.45;23.13;;;;;;;;;;5007106;28;20026;-39
2024/03/17 03:14:48;;;;;;;30.23;22.85;;;;;;;;;;5007190;28;20018;-41
2024/03/17 03:17:14;;;;;;;26.85;22.75;;;;;;;;;;5007049;28;20023;-43
2024/03/17 03:19:41;;;;;;;27.23;22.27;;;;;;;;;;5006959;28;20018;-41
2024/03/17 03:22:07;;;;;;;32.25;22.92;;;;;;;;;;5007095;28;20049;-35
2024/03/17 03:24:34;;;;;;;29.67;22.55;;;;;;;;;;5006778;28;20362;-38
2024/03/17 03:27:01;;;;;;;29.05;23.35;;;;;;;;;;5006873;28;20196;-34
2024/03/17 03:29:28;;;;;;;30.17;23.60;;;;;;;;;;5006904;28;20022;-37
2024/03/17 03:31:54;;;;;;;29.52;22.88;;;;;;;;;;5007111;28;20030;-41
2024/03/17 03:34:24;;;;;;;29.20;23.10;;;;;;;;;;5006762;28;20092;-41
2024/03/17 03:36:50;;;;;;;25.08;22.40;;;;;;;;;;5007178;28;20034;-45
2024/03/17 03:39:17;;;;;;;28.70;23.02;;;;;;;;;;5006618;28;20069;-39
2024/03/17 03:41:43;;;;;;;26.02;22.48;;;;;;;;;;5006991;28;20038;-44
2024/03/17 03:44:10;;;;;;;26.42;22.70;;;;;;;;;;5006743;28;20023;-47
2024/03/17 03:46:37;;;;;;;30.80;22.80;;;;;;;;;;5006846;28;20095;-44
2024/03/17 03:49:03;;;;;;;26.80;23.00;;;;;;;;;;5006592;28;20345;-48
2024/03/17 03:51:30;;;;;;;29.73;23.05;;;;;;;;;;5006248;28;20072;-43
2024/03/17 03:53:56;;;;;;;29.27;22.52;;;;;;;;;;5006379;28;20026;-41
2024/03/17 03:56:23;;;;;;;26.38;21.80;;;;;;;;;;5006714;28;20057;-40
2024/03/17 03:58:51;;;;;;;28.33;21.40;;;;;;;;;;5006198;28;20033;-42
2024/03/17 04:01:21;;;;;;;27.27;22.30;;;;;;;;;;5006475;28;20018;-42
2024/03/17 04:03:51;;;;;;;26.85;22.77;;;;;;;;;;5006186;28;20024;-48
2024/03/17 04:06:18;;;;;;;25.58;22.73;;;;;;;;;;5006487;28;20022;-47
2024/03/17 04:08:44;;;;;;;26.45;22.15;;;;;;;;;;5005880;28;20097;-48
2024/03/17 04:11:11;;;;;;;25.83;21.77;;;;;;;;;;5006511;28;20029;-43
2024/03/17 04:13:38;;;;;;;29.83;22.27;;;;;;;;;;5006150;28;20026;-41
2024/03/17 04:16:07;;;;;;;25.67;21.98;;;;;;;;;;5006193;28;20022;-45
2024/03/17 04:18:34;;;;;;;25.08;22.48;;;;;;;;;;5005865;28;20026;-42
2024/03/17 04:21:06;;;;;;;30.15;22.65;;;;;;;;;;5006243;28;20030;-50
2024/03/17 04:23:33;;;;;;;28.02;22.45;;;;;;;;;;5005756;28;20026;-51
2024/03/17 04:26:00;;;;;;;28.42;22.65;;;;;;;;;;5006229;28;20045;-45
2024/03/17 04:28:27;;;;;;;24.67;21.30;;;;;;;;;;5005721;28;20033;-41
2024/03/17 04:30:54;;;;;;;23.83;21.52;;;;;;;;;;5005857;28;20033;-46
2024/03/17 04:33:21;;;;;;;25.90;22.20;;;;;;;;;;5005607;28;20029;-43
2024/03/17 04:35:47;;;;;;;26.40;21.90;;;;;;;;;;5005932;28;20029;-46
2024/03/17 04:38:14;;;;;;;25.52;22.80;;;;;;;;;;5005405;28;20053;-41
2024/03/17 04:40:41;;;;;;;26.35;22.38;;;;;;;;;;5005655;28;20097;-48
2024/03/17 04:43:08;;;;;;;27.13;22.55;;;;;;;;;;5006103;28;20022;-42
2024/03/17 04:45:34;;;;;;;30.75;21.85;;;;;;;;;;5005510;28;20019;-41
2024/03/17 04:48:01;;;;;;;25.50;22.65;;;;;;;;;;5005481;28;20034;-49
2024/03/17 04:50:31;;;;;;;26.38;22.42;;;;;;;;;;5005546;28;20069;-45
2024/03/17 04:52:59;;;;;;;24.65;21.98;;;;;;;;;;5005150;28;20030;-43
2024/03/17 04:55:26;;;;;;;27.60;23.40;;;;;;;;;;5005320;28;20030;-54
2024/03/17 04:57:52;;;;;;;26.35;22.25;;;;;;;;;;5005119;28;20022;-47
2024/03/17 05:00:20;;;;;;;26.15;21.60;;;;;;;;;;5005245;28;20176;-48
2024/03/17 05:02:47;;;;;;;25.60;22.27;;;;;;;;;;5004238;28;20042;-42
2024/03/17 05:05:14;;;;;;;26.55;22.48;;;;;;;;;;5005235;28;20049;-45
2024/03/17 05:07:41;;;;;;;25.25;22.55;;;;;;;;;;5004916;28;20356;-42
2024/03/17 05:10:08;;;;;;;27.88;22.98;;;;;;;;;;5005122;28;20489;-40
2024/03/17 05:12:34;;;;;;;25.48;22.77;;;;;;;;;;5005187;28;20337;-47
2024/03/17 05:15:01;;;;;;;26.38;23.00;;;;;;;;;;5004730;28;20033;-43
2024/03/17 05:17:27;;;;;;;28.58;23.35;;;;;;;;;;5004803;28;20029;-42
2024/03/17 05:19:54;;;;;;;26.83;23.50;;;;;;;;;;5004972;28;20033;-38
2024/03/17 05:22:21;;;;;;;25.45;22.50;;;;;;;;;;5004581;28;20022;-42
2024/03/17 05:24:48;;;;;;;26.15;23.05;;;;;;;;;;5004855;28;20047;-38
2024/03/17 05:27:15;;;;;;;26.40;23.52;;;;;;;;;;5004745;28;20050;-43
2024/03/17 05:29:41;;;;;;;25.40;22.67;;;;;;;;;;5004484;28;20081;-44
2024/03/17 05:32:08;;;;;;;28.20;23.10;;;;;;;;;;5004559;28;20022;-41
2024/03/17 05:34:34;;;;;;;27.80;23.55;;;;;;;;;;5004630;28;20022;-52
2024/03/17 05:37:01;;;;;;;27.35;22.50;;;;;;;;;;5004392;28;20340;-44
2024/03/17 05:39:28;;;;;;;24.98;22.25;;;;;;;;;;5004366;28;20354;-41
2024/03/17 05:41:55;;;;;;;26.13;23.60;;;;;;;;;;5005002;28;20030;-49
2024/03/17 05:44:21;;;;;;;25.77;23.05;;;;;;;;;;5004354;28;20018;-43
2024/03/17 05:46:48;;;;;;;25.90;23.13;;;;;;;;;;5005006;28;20022;-41
2024/03/17 05:49:15;;;;;;;25.73;23.00;;;;;;;;;;5004376;28;20204;-46
2024/03/17 05:51:41;;;;;;;25.70;23.05;;;;;;;;;;5004765;28;20187;-46
2024/03/17 05:54:08;;;;;;;28.02;23.15;;;;;;;;;;5004436;28;20030;-45
2024/03/17 05:56:34;;;;;;;29.58;23.13;;;;;;;;;;5004776;28;20026;-49
2024/03/17 05:59:01;;;;;;;25.88;23.10;;;;;;;;;;5004265;28;20030;-49
2024/03/17 06:01:28;;;;;;;25.90;23.40;;;;;;;;;;5004671;28;20026;-42
2024/03/17 06:03:55;;;;;;;25.38;22.83;;;;;;;;;;5004332;28;20081;-43
2024/03/17 06:06:22;;;;;;;25.70;23.23;;;;;;;;;;5004538;28;20180;-47
2024/03/17 06:08:49;;;;;;;25.20;22.58;;;;;;;;;;5004437;28;20032;-45
2024/03/17 06:11:16;;;;;;;26.83;23.55;;;;;;;;;;5004593;28;20068;-47
2024/03/17 06:13:42;;;;;;;28.45;23.08;;;;;;;;;;5006234;28;20026;-47
2024/03/17 06:16:09;;;;;;;25.63;23.05;;;;;;;;;;5008407;28;20026;-37
2024/03/17 06:18:37;;;;;;;31.70;23.77;;;;;;;;;;5008168;28;20057;-38
2024/03/17 06:21:05;;;;;;;25.55;22.77;;;;;;;;;;5008419;28;20022;-39
2024/03/17 06:23:32;;;;;;;25.38;22.63;;;;;;;;;;5007903;28;20246;-36
2024/03/17 06:25:59;;;;;;;25.42;22.73;;;;;;;;;;5008369;28;20194;-35
2024/03/17 06:28:26;;;;;;;25.40;22.42;;;;;;;;;;5007990;28;20318;-35
2024/03/17 06:30:59;;;;;;;25.45;22.80;;;;;;;;;;5008042;28;20097;-43
2024/03/17 06:33:26;;;;;;;25.08;22.52;;;;;;;;;;5007911;28;20058;-37
2024/03/17 06:35:53;;;;;;;24.83;22.35;;;;;;;;;;5008014;28;20040;-46
2024/03/17 06:38:19;;;;;;;26.42;23.92;;;;;;;;;;5007854;28;20031;-41
2024/03/17 06:40:50;;;;;;;27.67;22.92;;;;;;;;;;5007899;28;20054;-44
2024/03/17 06:43:17;;;;;;;25.73;22.33;;;;;;;;;;5007599;28;20030;-46
2024/03/17 06:45:43;;;;;;;25.55;22.95;;;;;;;;;;5007903;28;20025;-39
2024/03/17 06:48:10;;;;;;;26.17;23.42;;;;;;;;;;5007837;28;20196;-45
2024/03/17 06:50:40;;;;;;;26.05;22.25;;;;;;;;;;5007728;28;20080;-45
2024/03/17 06:53:08;;;;;;;24.17;21.67;;;;;;;;;;5007739;28;20026;-40
2024/03/17 06:55:35;;;;;;;25.60;22.90;;;;;;;;;;5007703;28;20030;-46
2024/03/17 06:58:03;;;;;;;25.35;22.95;;;;;;;;;;5007255;28;20022;-45
2024/03/17 07:00:29;;;;;;;25.70;23.10;;;;;;;;;;5007509;28;20023;-42
2024/03/17 07:02:57;;;;;;;25.10;22.40;;;;;;;;;;5007468;28;20326;-44
2024/03/17 07:05:23;;;;;;;24.92;22.42;;;;;;;;;;5007288;28;20038;-43
2024/03/17 07:07:51;;;;;;;25.40;22.98;;;;;;;;;;5007254;28;20041;-43
2024/03/17 07:10:18;;;;;;;25.50;22.75;;;;;;;;;;5007341;28;20192;-45
2024/03/17 07:12:44;;;;;;;25.60;22.40;;;;;;;;;;5007156;28;20057;-47
2024/03/17 07:15:11;;;;;;;25.85;23.08;;;;;;;;;;5007178;28;20088;-46
2024/03/17 07:17:37;;;;;;;25.50;22.65;;;;;;;;;;5007047;28;20381;-35
2024/03/17 07:20:08;;;;;;;25.27;22.73;;;;;;;;;;5007074;28;20303;-33
2024/03/17 07:22:35;;;;;;;25.85;22.02;;;;;;;;;;5006991;28;20026;-40
2024/03/17 07:25:02;;;;;;;26.95;23.00;;;;;;;;;;5006158;28;20340;-37
2024/03/17 07:27:29;;;;;;;25.35;22.58;;;;;;;;;;5006767;28;20211;-36
2024/03/17 07:29:56;;;;;;;26.13;23.02;;;;;;;;;;5006912;28;20302;-35
2024/03/17 07:32:25;;;;;;;26.48;22.67;;;;;;;;;;5006925;28;20030;-39
2024/03/17 07:34:52;;;;;;;25.92;23.33;;;;;;;;;;5006779;28;20034;-34
2024/03/17 07:37:19;;;;;;;29.67;23.38;;;;;;;;;;5006701;28;20030;-35
2024/03/17 07:39:49;;;;;;;24.63;22.13;;;;;;;;;;5006653;28;20053;-35
2024/03/17 07:42:16;;;;;;;25.50;22.67;;;;;;;;;;5006496;28;20085;-35
2024/03/17 07:44:44;;;;;;;27.33;23.10;;;;;;;;;;5006819;28;20018;-37
2024/03/17 07:47:11;;;;;;;26.85;23.65;;;;;;;;;;5006541;28;20022;-39
2024/03/17 07:49:38;;;;;;;25.42;22.67;;;;;;;;;;5006276;28;20097;-37
2024/03/17 07:52:05;;;;;;;26.90;23.60;;;;;;;;;;5006508;28;20077;-38
2024/03/17 07:54:31;;;;;;;28.23;23.83;;;;;;;;;;5006303;28;20022;-38
2024/03/17 07:56:58;;;;;;;25.13;22.67;;;;;;;;;;5006299;28;20084;-40
2024/03/17 07:59:25;;;;;;;26.45;23.70;;;;;;;;;;5006236;28;20026;-35
2024/03/17 08:01:51;;;;;;;26.13;23.30;;;;;;;;;;5006831;28;20022;-40
2024/03/17 08:04:18;;;;;;;30.98;24.27;;;;;;;;;;5006195;28;20077;-37
2024/03/17 08:06:44;;;;;;;27.60;23.13;;;;;;;;;;5006768;28;20033;-34
2024/03/17 08:09:12;;;;;;;30.52;24.30;;;;;;;;;;5006374;28;20084;-34
2024/03/17 08:11:43;;;;;;;25.45;22.95;;;;;;;;;;5006566;28;20245;-38
2024/03/17 08:14:10;;;;;;;32.58;23.83;;;;;;;;;;5006045;28;20257;-35
2024/03/17 08:16:36;;;;;;;26.73;23.83;;;;;;;;;;5006428;28;20149;-35
2024/03/17 08:19:03;;;;;;;26.60;23.80;;;;;;;;;;5005799;28;20030;-42
2024/03/17 08:21:29;;;;;;;26.15;23.35;;;;;;;;;;5006295;28;20365;-35
2024/03/17 08:23:56;;;;;;;26.10;23.45;;;;;;;;;;5005973;28;20341;-40
2024/03/17 08:26:23;;;;;;;26.63;24.02;;;;;;;;;;5006134;28;20073;-36
2024/03/17 08:28:50;;;;;;;26.30;23.52;;;;;;;;;;5005835;28;20097;-35
2024/03/17 08:31:16;;;;;;;27.45;23.08;;;;;;;;;;5006166;28;20028;-40
2024/03/17 08:33:43;;;;;;;27.42;23.75;;;;;;;;;;5005775;28;20061;-34
2024/03/17 08:36:10;;;;;;;28.25;24.08;;;;;;;;;;5005881;28;20214;-35
2024/03/17 08:38:38;;;;;;;28.35;25.08;;;;;;;;;;5005474;28;20054;-36
2024/03/17 08:41:06;;;;;;;32.10;25.38;;;;;;;;;;5005610;28;20058;-35
2024/03/17 08:43:33;;;;;;;27.73;24.77;;;;;;;;;;5005436;28;20618;-35
2024/03/17 08:46:02;;;;;;;27.48;24.70;;;;;;;;;;5005514;28;20029;-38
2024/03/17 08:48:31;;;;;;;27.85;24.95;;;;;;;;;;5005605;28;20210;-37
2024/03/17 08:50:58;;;;;;;28.73;25.52;;;;;;;;;;5005712;28;20033;-34
2024/03/17 08:53:26;;;;;;;27.15;24.30;;;;;;;;;;5005373;28;20196;-45
2024/03/17 08:55:53;;;;;;;27.90;24.90;;;;;;;;;;5005352;28;20026;-42
2024/03/17 08:58:20;;;;;;;27.48;24.75;;;;;;;;;;5005126;28;20030;-43
2024/03/17 09:00:46;;;;;;;27.85;25.02;;;;;;;;;;5005379;28;20029;-38
2024/03/17 09:03:13;;;;;;;28.27;25.27;;;;;;;;;;5005034;28;20018;-41
2024/03/17 09:05:40;;;;;;;27.17;24.48;;;;;;;;;;5005230;28;20034;-36
2024/03/17 09:08:10;;;;;;;29.83;24.77;;;;;;;;;;5005208;28;20203;-36
2024/03/17 09:10:44;;;;;;;31.08;24.35;;;;;;;;;;5005125;28;20311;-43
2024/03/17 09:13:17;;;;;;;27.90;24.65;;;;;;;;;;5004981;28;20110;-46
2024/03/17 09:16:02;;;;;;;27.48;24.60;;;;;;;;;;5005089;28;20053;-40
2024/03/17 09:18:30;;;;;;;28.20;24.75;;;;;;;;;;5004804;28;20033;-46
2024/03/17 09:21:00;;;;;;;28.77;25.05;;;;;;;;;;5005058;28;20026;-47
2024/03/17 09:23:28;;;;;;;35.10;26.08;;;;;;;;;;5004932;28;20026;-39
2024/03/17 09:25:58;;;;;;;33.75;26.77;;;;;;;;;;5004970;28;20046;-42
2024/03/17 09:28:24;;;;;;;28.52;25.45;;;;;;;;;;5004636;28;20034;-49
2024/03/17 09:30:52;;;;;;;27.55;24.05;;;;;;;;;;5004493;28;20079;-42
2024/03/17 09:33:20;;;;;;;30.83;24.95;;;;;;;;;;5004600;28;20097;-40
2024/03/17 09:35:54;;;;;;;29.38;23.98;;;;;;;;;;5004937;28;20369;-44
2024/03/17 09:38:21;;;;;;;29.60;25.05;;;;;;;;;;5004493;28;20072;-38
2024/03/17 09:40:51;;;;;;;29.52;25.50;;;;;;;;;;5004490;28;20109;-36
2024/03/17 09:43:17;;;;;;;32.40;24.60;;;;;;;;;;5004352;28;20018;-38
2024/03/17 09:45:44;;;;;;;31.85;25.60;;;;;;;;;;5004658;28;20022;-34
2024/03/17 09:48:14;;;;;;;28.75;25.10;;;;;;;;;;5003860;28;20030;-36
2024/03/17 09:50:41;;;;;;;34.70;25.10;;;;;;;;;;5004213;28;20026;-37
2024/03/17 09:53:12;;;;;;;30.92;25.55;;;;;;;;;;5004468;28;20022;-40
2024/03/17 09:55:39;;;;;;;34.88;25.77;;;;;;;;;;5004469;28;20022;-43
2024/03/17 09:58:07;;;;;;;35.33;26.02;;;;;;;;;;5004208;28;20034;-47
2024/03/17 10:00:33;;;;;;;32.90;26.23;;;;;;;;;;5004447;28;20014;-38
2024/03/17 10:03:00;;;;;;;29.52;25.85;;;;;;;;;;5004351;28;20034;-44
2024/03/17 10:05:27;;;;;;;35.05;25.13;;;;;;;;;;5004315;28;20041;-40
2024/03/17 10:07:53;;;;;;;30.33;25.02;;;;;;;;;;5004367;28;20030;-42
2024/03/17 10:10:21;;;;;;;29.95;26.10;;;;;;;;;;5004317;28;20093;-40
2024/03/17 10:12:51;;;;;;;34.33;25.38;;;;;;;;;;5004060;28;20033;-44
2024/03/17 10:15:18;;;;;;;29.35;25.95;;;;;;;;;;5004351;28;20082;-46
2024/03/17 10:17:45;;;;;;;28.98;25.67;;;;;;;;;;5004073;28;20022;-46
2024/03/17 10:20:16;;;;;;;29.00;25.90;;;;;;;;;;5004032;28;20089;-37
2024/03/17 10:23:03;;;;;;;28.73;25.63;;;;;;;;;;5004446;28;20311;-45
2024/03/17 10:25:31;;;;;;;30.60;25.83;;;;;;;;;;5004039;28;20023;-37
2024/03/17 10:27:58;;;;;;;32.65;25.90;;;;;;;;;;5004320;28;20057;-38
2024/03/17 10:30:29;;;;;;;34.92;26.17;;;;;;;;;;5004233;28;20073;-47
2024/03/17 10:32:57;;;;;;;31.95;26.33;;;;;;;;;;5003874;28;20037;-51
2024/03/17 10:35:28;;;;;;;30.67;24.75;;;;;;;;;;5004114;28;20030;-39
2024/03/17 10:37:55;;;;;;;34.88;25.30;;;;;;;;;;5004423;28;20061;-40
2024/03/17 10:40:22;;;;;;;35.78;26.30;;;;;;;;;;5003846;28;20057;-40
2024/03/17 10:42:49;;;;;;;32.05;26.10;;;;;;;;;;5003925;28;20085;-46
2024/03/17 10:45:16;;;;;;;36.38;27.50;;;;;;;;;;5003983;28;20033;-47
2024/03/17 10:47:45;;;;;;;34.47;26.83;;;;;;;;;;5004096;28;20038;-41
2024/03/17 10:50:17;;;;;;;32.45;27.08;;;;;;;;;;5003902;28;20311;-40
2024/03/17 10:52:51;;;;;;;33.55;25.23;;;;;;;;;;5003854;28;20307;-40
2024/03/17 10:55:24;;;;;;;41.72;25.48;;;;;;;;;;5003975;28;20080;-40
2024/03/17 10:57:58;;;;;;;33.45;24.77;;;;;;;;;;5003702;28;20334;-49
2024/03/17 11:00:29;;;;;;;33.70;24.45;;;;;;;;;;5005239;28;20105;-34
2024/03/17 11:02:56;;;;;;;29.07;24.40;;;;;;;;;;5007425;28;20242;-35
2024/03/17 11:05:24;;;;;;;36.45;23.88;;;;;;;;;;5007347;28;20466;-35
2024/03/17 11:07:54;;;;;;;30.30;24.02;;;;;;;;;;5007278;28;20076;-36
2024/03/17 11:10:26;;;;;;;34.38;22.85;;;;;;;;;;5007367;28;20069;-36
2024/03/17 11:13:01;;;;;;;47.15;24.00;;;;;;;;;;5007073;28;20078;-37
2024/03/17 11:15:40;;;;;;;35.60;22.10;;;;;;;;;;5007314;28;20328;-36
2024/03/17 11:18:09;;;;;;;35.20;22.55;;;;;;;;;;5006887;28;20068;-38
2024/03/17 11:20:40;;;;;;;34.47;22.75;;;;;;;;;;5007348;28;20022;-39
2024/03/17 11:23:07;;;;;;;32.22;21.92;;;;;;;;;;5007112;28;20308;-38
2024/03/17 11:25:36;;;;;;;32.83;22.65;;;;;;;;;;5006946;28;20045;-35
2024/03/17 11:28:09;;;;;;;30.77;22.02;;;;;;;;;;5006855;28;20089;-37
2024/03/17 11:30:54;;;;;;;26.67;21.75;;;;;;;;;;5006907;28;20037;-42
2024/03/17 11:33:35;;;;;;;24.23;21.65;;;;;;;;;;5006813;28;20061;-35
2024/03/17 11:36:19;;;;;;;27.20;22.42;;;;;;;;;;5006931;28;20038;-39
2024/03/17 11:39:01;;;;;;;33.33;22.67;;;;;;;;;;5006683;28;20054;-40
2024/03/17 11:41:37;;;;;;;30.83;22.48;;;;;;;;;;5006916;28;20046;-34
2024/03/17 11:44:23;;;;;;;29.25;23.38;;;;;;;;;;5006536;28;20037;-38
2024/03/17 11:46:55;;;;;;;32.65;23.13;;;;;;;;;;5006905;28;20026;-34
2024/03/17 11:49:23;;;;;;;40.10;24.13;;;;;;;;;;5006411;28;20033;-40
2024/03/17 11:51:50;;;;;;;34.53;24.65;;;;;;;;;;5006932;28;20053;-36
2024/03/17 11:54:21;;;;;;;36.78;23.35;;;;;;;;;;5006321;28;20085;-34
2024/03/17 11:56:49;;;;;;;32.90;23.95;;;;;;;;;;5006905;28;20089;-35
2024/03/17 11:59:19;;;;;;;35.72;23.73;;;;;;;;;;5006187;28;20310;-35
2024/03/17 12:01:52;;;;;;;35.05;23.25;;;;;;;;;;5006207;28;20034;-34
2024/03/17 12:04:19;;;;;;;33.88;23.55;;;;;;;;;;5006172;28;20033;-35
2024/03/17 12:06:46;;;;;;;30.35;23.85;;;;;;;;;;5006755;28;20041;-37
2024/03/17 12:09:24;;;;;;;31.10;23.85;;;;;;;;;;5006159;28;20025;-35
2024/03/17 12:12:00;;;;;;;35.70;24.02;;;;;;;;;;5005988;28;20022;-35
2024/03/17 12:14:27;;;;;;;28.83;23.98;;;;;;;;;;5006123;28;20041;-38
2024/03/17 12:16:58;;;;;;;28.70;23.02;;;;;;;;;;5006356;28;20114;-43
2024/03/17 12:19:26;;;;;;;30.38;24.50;;;;;;;;;;5005901;28;20026;-45
2024/03/17 12:21:57;;;;;;;32.70;23.85;;;;;;;;;;5006710;28;20033;-38
2024/03/17 12:24:26;;;;;;;30.65;24.13;;;;;;;;;;5005674;28;20370;-38
2024/03/17 12:26:56;;;;;;;35.35;24.60;;;;;;;;;;5006210;28;20033;-44
2024/03/17 12:29:41;;;;;;;37.92;26.88;;;;;;;;;;5005643;28;20085;-39
2024/03/17 12:32:14;;;;;;;39.47;27.50;;;;;;;;;;5005835;28;20030;-43
2024/03/17 12:34:41;;;;;;;34.47;26.98;;;;;;;;;;5005481;28;20084;-41
2024/03/17 12:37:08;;;;;;;29.27;26.10;;;;;;;;;;5005440;28;20101;-39
2024/03/17 12:39:35;;;;;;;30.35;26.60;;;;;;;;;;5005251;28;20022;-40
2024/03/17 12:42:12;;;;;;;36.28;26.70;;;;;;;;;;5005447;28;20037;-39
2024/03/17 12:44:43;;;;;;;28.52;25.60;;;;;;;;;;5005344;28;20121;-40
2024/03/17 12:47:15;;;;;;;33.97;26.80;;;;;;;;;;5005480;28;20026;-39
2024/03/17 12:49:55;;;;;;;30.20;25.88;;;;;;;;;;5005272;28;20028;-39
2024/03/17 12:52:21;;;;;;;35.17;25.40;;;;;;;;;;5005306;28;20026;-41
2024/03/17 13:00:35;;;;;;;31.67;25.33;;;;;;;;;;5005487;28;20030;-41
2024/03/17 13:03:02;;;;;;;33.38;24.52;;;;;;;;;;5005091;28;20265;-40
2024/03/17 13:05:29;;;;;;;41.65;24.88;;;;;;;;;;5005250;28;20229;-43
2024/03/17 13:07:57;;;;;;;37.58;25.73;;;;;;;;;;5005059;28;20037;-39
2024/03/17 13:10:24;;;;;;;34.90;25.25;;;;;;;;;;5005163;28;20022;-39
2024/03/17 13:13:12;;;;;;;42.85;26.10;;;;;;;;;;5004775;28;20214;-45
2024/03/17 13:15:39;;;;;;;52.10;28.20;;;;;;;;;;5005079;28;20133;-44
2024/03/17 13:18:06;;;;;;;44.90;26.40;;;;;;;;;;5004748;28;20097;-51
2024/03/17 13:20:33;;;;;;;41.75;27.70;;;;;;;;;;5005022;28;20018;-42
2024/03/17 13:23:03;;;;;;;37.83;27.38;;;;;;;;;;5004171;28;20026;-40
2024/03/17 13:25:34;;;;;;;32.75;26.27;;;;;;;;;;5004772;28;20321;-37
2024/03/17 13:28:03;;;;;;;31.20;25.38;;;;;;;;;;5004995;28;20030;-43
2024/03/17 13:30:30;;;;;;;32.17;26.20;;;;;;;;;;5004789;28;20198;-46
2024/03/17 13:33:00;;;;;;;29.25;24.67;;;;;;;;;;5004545;28;20030;-41
2024/03/17 13:35:28;;;;;;;28.70;25.60;;;;;;;;;;5004746;28;20025;-35
2024/03/17 13:37:55;;;;;;;31.08;25.27;;;;;;;;;;5004423;28;20034;-39
2024/03/17 13:40:23;;;;;;;27.60;24.65;;;;;;;;;;5004411;28;20118;-36
2024/03/17 13:42:50;;;;;;;28.13;23.35;;;;;;;;;;5004693;28;20026;-44
2024/03/17 13:45:17;;;;;;;27.80;24.75;;;;;;;;;;5004598;28;20030;-40
2024/03/17 13:47:52;;;;;;;27.83;24.67;;;;;;;;;;5004570;28;20338;-38
2024/03/17 13:50:19;;;;;;;26.45;23.70;;;;;;;;;;5004691;28;20303;-35
2024/03/17 13:52:46;;;;;;;27.58;24.65;;;;;;;;;;5004227;28;20022;-40
2024/03/17 13:55:20;;;;;;;27.73;25.02;;;;;;;;;;5004494;28;20065;-39
2024/03/17 13:57:47;;;;;;;29.35;26.33;;;;;;;;;;5004375;28;20041;-42
2024/03/17 14:00:19;;;;;;;28.85;26.08;;;;;;;;;;5004225;28;20050;-36
2024/03/17 14:02:49;;;;;;;30.77;27.27;;;;;;;;;;5004235;28;20041;-35
2024/03/17 14:05:17;;;;;;;31.73;28.02;;;;;;;;;;5004441;28;20030;-38
2024/03/17 14:07:44;;;;;;;32.08;28.75;;;;;;;;;;5004463;28;20041;-38
2024/03/17 14:10:11;;;;;;;31.65;28.42;;;;;;;;;;5004249;28;20352;-42
2024/03/17 14:12:39;;;;;;;32.50;29.00;;;;;;;;;;5004117;28;20085;-35
2024/03/17 14:15:06;;;;;;;31.98;28.70;;;;;;;;;;5004218;28;20027;-40
2024/03/17 14:17:33;;;;;;;31.88;28.67;;;;;;;;;;5004094;28;20311;-38
2024/03/17 14:19:59;;;;;;;31.08;27.92;;;;;;;;;;5004065;28;20247;-40
2024/03/17 14:22:26;;;;;;;32.05;28.67;;;;;;;;;;5004409;28;20291;-35
2024/03/17 14:24:53;;;;;;;32.42;29.33;;;;;;;;;;5004162;28;20307;-36
2024/03/17 14:27:20;;;;;;;32.85;29.52;;;;;;;;;;5004081;28;20319;-40
2024/03/17 14:29:47;;;;;;;32.35;28.88;;;;;;;;;;5003835;28;20022;-40
2024/03/17 14:32:14;;;;;;;31.20;27.27;;;;;;;;;;5004081;28;20030;-41